createdAt,value
2022-10-20T00:01:55.760Z,19.85
2022-10-20T00:04:24.845Z,21.05
2022-10-20T00:06:52.541Z,21.35
2022-10-20T00:09:20.313Z,21.30
2022-10-20T00:11:48.121Z,19.85
2022-10-20T00:14:15.794Z,20.17
2022-10-20T00:16:43.606Z,20.10
2022-10-20T00:19:12.584Z,20.83
2022-10-20T00:21:41.749Z,20.27
2022-10-20T00:24:09.583Z,20.08
2022-10-20T00:26:37.639Z,17.52
2022-10-20T00:29:05.787Z,19.38
2022-10-20T00:31:34.061Z,18.67
2022-10-20T00:34:01.808Z,17.90
2022-10-20T00:36:29.927Z,20.05
2022-10-20T00:39:00.833Z,18.38
2022-10-20T00:41:29.552Z,17.70
2022-10-20T00:43:59.822Z,18.75
2022-10-20T00:46:33.800Z,18.17
2022-10-20T00:49:07.528Z,16.58
2022-10-20T00:51:36.057Z,17.08
2022-10-20T00:54:09.862Z,16.35
2022-10-20T00:56:41.043Z,16.17
2022-10-20T00:59:09.552Z,17.23
2022-10-20T01:01:38.822Z,16.88
2022-10-20T01:04:07.262Z,19.85
2022-10-20T01:06:35.091Z,19.10
2022-10-20T01:09:03.277Z,19.17
2022-10-20T01:11:42.327Z,19.23
2022-10-20T01:14:28.146Z,19.83
2022-10-20T01:17:04.239Z,18.25
2022-10-20T01:19:58.303Z,18.23
2022-10-20T01:22:44.236Z,19.88
2022-10-20T01:25:23.364Z,18.50
2022-10-20T01:27:56.747Z,18.50
2022-10-20T01:30:25.120Z,18.50
2022-10-20T01:33:09.425Z,18.35
2022-10-20T01:35:47.911Z,17.88
2022-10-20T01:38:24.549Z,18.63
2022-10-20T01:40:59.997Z,19.05
2022-10-20T01:43:34.099Z,18.58
2022-10-20T01:46:03.136Z,17.65
2022-10-20T01:48:35.366Z,18.13
2022-10-20T01:51:05.161Z,17.60
2022-10-20T01:53:33.212Z,21.00
2022-10-20T01:56:02.862Z,21.40
2022-10-20T01:59:21.335Z,19.55
2022-10-20T02:02:07.289Z,17.55
2022-10-20T02:04:50.243Z,17.25
2022-10-20T02:07:25.955Z,18.55
2022-10-20T02:09:57.446Z,19.00
2022-10-20T02:12:29.010Z,17.55
2022-10-20T02:14:57.578Z,18.98
2022-10-20T02:17:26.819Z,19.17
2022-10-20T02:19:55.045Z,22.70
2022-10-20T02:22:24.191Z,20.13
2022-10-20T02:24:52.093Z,20.15
2022-10-20T02:27:24.158Z,20.40
2022-10-20T02:32:22.516Z,18.25
2022-10-20T02:34:51.653Z,19.02
2022-10-20T02:37:19.497Z,20.45
2022-10-20T02:39:47.226Z,19.50
2022-10-20T02:42:17.098Z,20.50
2022-10-20T02:44:44.811Z,21.23
2022-10-20T02:47:12.499Z,18.60
2022-10-20T02:49:40.202Z,20.25
2022-10-20T02:52:09.350Z,23.15
2022-10-20T02:54:37.049Z,23.20
2022-10-20T02:57:04.957Z,24.38
2022-10-20T02:59:33.330Z,22.55
2022-10-20T03:02:01.080Z,24.27
2022-10-20T03:04:28.977Z,22.35
2022-10-20T03:06:56.719Z,22.65
2022-10-20T03:09:25.911Z,22.63
2022-10-20T03:11:53.652Z,23.17
2022-10-20T03:14:21.456Z,24.05
2022-10-20T03:16:49.293Z,23.38
2022-10-20T03:19:17.034Z,22.58
2022-10-20T03:21:44.744Z,25.17
2022-10-20T03:24:12.471Z,24.48
2022-10-20T03:26:41.514Z,23.95
2022-10-20T03:29:09.346Z,24.08
2022-10-20T03:31:37.113Z,22.58
2022-10-20T03:34:04.862Z,21.50
2022-10-20T03:36:32.576Z,20.75
2022-10-20T03:39:00.346Z,21.65
2022-10-20T03:41:28.040Z,20.05
2022-10-20T03:43:57.142Z,18.92
2022-10-20T03:46:25.228Z,20.25
2022-10-20T03:48:52.931Z,21.00
2022-10-20T03:51:20.733Z,22.17
2022-10-20T03:53:48.458Z,22.77
2022-10-20T03:56:19.085Z,20.98
2022-10-20T03:58:46.928Z,24.88
2022-10-20T04:01:17.684Z,23.00
2022-10-20T04:03:45.842Z,21.75
2022-10-20T04:06:14.181Z,21.20
2022-10-20T04:08:42.270Z,21.38
2022-10-20T04:11:10.290Z,22.10
2022-10-20T04:13:38.048Z,20.83
2022-10-20T04:16:06.120Z,22.77
2022-10-20T04:18:35.230Z,21.63
2022-10-20T04:21:03.017Z,23.08
2022-10-20T04:23:30.744Z,21.95
2022-10-20T04:25:58.453Z,22.40
2022-10-20T04:28:26.219Z,21.08
2022-10-20T04:30:54.532Z,22.33
2022-10-20T04:33:22.251Z,23.80
2022-10-20T04:35:58.350Z,22.58
2022-10-20T04:38:26.066Z,24.08
2022-10-20T04:41:00.303Z,26.73
2022-10-20T04:43:52.327Z,26.45
2022-10-20T04:46:21.192Z,25.67
2022-10-20T04:48:48.992Z,23.23
2022-10-20T04:51:18.640Z,24.88
2022-10-20T04:53:46.509Z,22.98
2022-10-20T04:56:18.349Z,22.45
2022-10-20T04:58:48.855Z,22.42
2022-10-20T05:01:16.653Z,21.42
2022-10-20T05:03:44.815Z,20.38
2022-10-20T05:06:15.294Z,20.27
2022-10-20T05:08:46.481Z,19.92
2022-10-20T05:11:15.775Z,18.80
2022-10-20T05:13:44.059Z,18.80
2022-10-20T05:16:12.592Z,20.40
2022-10-20T05:18:40.969Z,19.25
2022-10-20T05:21:10.214Z,18.80
2022-10-20T05:23:38.787Z,19.77
2022-10-20T05:26:09.884Z,20.15
2022-10-20T05:28:37.683Z,19.05
2022-10-20T05:31:06.712Z,19.80
2022-10-20T05:33:35.082Z,20.55
2022-10-20T05:36:08.683Z,20.17
2022-10-20T05:38:36.881Z,20.27
2022-10-20T05:41:10.633Z,21.27
2022-10-20T05:43:38.675Z,20.65
2022-10-20T05:46:07.244Z,20.60
2022-10-20T05:48:38.271Z,20.42
2022-10-20T05:51:13.590Z,20.45
2022-10-20T05:53:43.357Z,19.85
2022-10-20T05:56:14.329Z,20.92
2022-10-20T05:58:44.211Z,19.00
2022-10-20T06:01:16.883Z,20.85
2022-10-20T06:03:47.905Z,19.60
2022-10-20T06:06:16.022Z,19.30
2022-10-20T06:08:43.778Z,19.77
2022-10-20T06:11:14.316Z,20.65
2022-10-20T06:13:42.364Z,19.45
2022-10-20T06:16:12.216Z,20.80
2022-10-20T06:18:40.158Z,20.63
2022-10-20T06:21:09.484Z,19.33
2022-10-20T06:23:37.380Z,20.20
2022-10-20T06:26:06.481Z,19.80
2022-10-20T06:28:36.697Z,20.42
2022-10-20T06:31:12.828Z,19.77
2022-10-20T06:33:40.666Z,19.40
2022-10-20T06:36:09.413Z,21.05
2022-10-20T06:38:37.173Z,21.08
2022-10-20T06:41:05.703Z,20.55
2022-10-20T06:43:35.046Z,21.02
2022-10-20T06:46:05.046Z,19.83
2022-10-20T06:48:33.812Z,19.75
2022-10-20T06:51:03.287Z,22.13
2022-10-20T06:53:32.031Z,20.17
2022-10-20T06:56:01.100Z,31.75
2022-10-20T06:58:29.896Z,26.50
2022-10-20T07:01:05.552Z,23.42
2022-10-20T07:03:37.401Z,23.30
2022-10-20T07:06:06.534Z,22.92
2022-10-20T07:08:35.848Z,22.58
2022-10-20T07:11:07.599Z,22.95
2022-10-20T07:13:37.832Z,22.77
2022-10-20T07:16:08.813Z,23.65
2022-10-20T07:18:37.147Z,23.73
2022-10-20T07:21:07.144Z,30.65
2022-10-20T07:23:36.154Z,25.92
2022-10-20T07:26:05.709Z,26.15
2022-10-20T07:28:34.471Z,25.08
2022-10-20T07:31:04.913Z,24.23
2022-10-20T07:33:35.132Z,25.48
2022-10-20T07:36:03.055Z,24.45
2022-10-20T07:38:30.781Z,24.08
2022-10-20T07:41:03.114Z,26.67
2022-10-20T07:43:31.071Z,25.05
2022-10-20T07:45:58.780Z,25.60
2022-10-20T07:48:26.580Z,26.67
2022-10-20T07:50:55.733Z,25.42
2022-10-20T07:53:23.449Z,25.75
2022-10-20T07:55:51.243Z,26.50
2022-10-20T07:58:19.330Z,26.95
2022-10-20T08:00:46.992Z,26.30
2022-10-20T08:03:14.859Z,25.80
2022-10-20T08:05:42.861Z,25.13
2022-10-20T08:08:12.080Z,25.02
2022-10-20T08:10:39.929Z,25.77
2022-10-20T08:13:07.636Z,25.00
2022-10-20T08:15:35.496Z,24.75
2022-10-20T08:18:05.607Z,24.92
2022-10-20T08:20:39.461Z,22.80
2022-10-20T08:23:07.346Z,23.10
2022-10-20T08:25:36.451Z,24.65
2022-10-20T08:28:04.407Z,26.08
2022-10-20T08:30:32.200Z,26.33
2022-10-20T08:32:59.974Z,26.58
2022-10-20T08:35:27.989Z,26.33
2022-10-20T08:37:55.712Z,26.02
2022-10-20T08:40:26.599Z,25.30
2022-10-20T08:42:56.737Z,26.25
2022-10-20T08:45:27.087Z,25.23
2022-10-20T08:47:57.333Z,27.45
2022-10-20T08:50:27.834Z,28.05
2022-10-20T08:52:58.607Z,27.13
2022-10-20T08:55:29.293Z,28.08
2022-10-20T08:58:03.101Z,27.70
2022-10-20T09:00:32.496Z,26.92
2022-10-20T09:03:10.876Z,25.35
2022-10-20T09:05:42.845Z,26.27
2022-10-20T09:08:11.044Z,26.40
2022-10-20T09:10:41.808Z,25.30
2022-10-20T09:13:21.289Z,25.80
2022-10-20T09:15:49.776Z,25.00
2022-10-20T09:18:18.185Z,26.50
2022-10-20T09:20:50.121Z,28.40
2022-10-20T09:23:39.865Z,25.38
2022-10-20T09:26:24.862Z,25.20
2022-10-20T09:29:13.358Z,29.00
2022-10-20T09:31:44.169Z,25.20
2022-10-20T09:34:22.974Z,24.35
2022-10-20T09:36:52.440Z,26.20
2022-10-20T09:39:23.104Z,24.92
2022-10-20T09:41:59.764Z,24.08
2022-10-20T09:44:29.327Z,23.25
2022-10-20T09:46:57.110Z,23.40
2022-10-20T09:49:29.144Z,25.02
2022-10-20T09:54:26.808Z,21.05
2022-10-20T09:56:55.634Z,22.27
2022-10-20T09:59:32.245Z,21.83
2022-10-20T10:02:02.319Z,21.55
2022-10-20T10:04:33.573Z,20.58
2022-10-20T10:07:01.445Z,20.55
2022-10-20T10:09:34.127Z,21.75
2022-10-20T10:12:05.445Z,23.60
2022-10-20T10:14:36.338Z,21.20
2022-10-20T10:17:04.202Z,22.02
2022-10-20T10:19:34.478Z,21.60
2022-10-20T10:22:04.438Z,21.27
2022-10-20T10:24:40.050Z,21.25
2022-10-20T10:27:26.964Z,20.40
2022-10-20T10:29:57.336Z,22.50
2022-10-20T10:32:27.106Z,20.02
2022-10-20T10:35:07.824Z,20.25
2022-10-20T10:37:36.711Z,18.83
2022-10-20T10:40:15.349Z,19.58
2022-10-20T10:42:56.076Z,17.90
2022-10-20T10:45:41.231Z,18.17
2022-10-20T10:48:45.689Z,19.83
2022-10-20T10:51:21.723Z,18.30
2022-10-20T10:54:00.221Z,18.33
2022-10-20T10:56:36.860Z,18.13
2022-10-20T10:59:11.283Z,19.38
2022-10-20T11:01:58.877Z,19.23
2022-10-20T11:04:44.855Z,19.58
2022-10-20T11:07:25.204Z,22.50
2022-10-20T11:10:03.406Z,20.30
2022-10-20T11:12:50.956Z,19.25
2022-10-20T11:15:34.924Z,19.52
2022-10-20T11:18:13.374Z,19.75
2022-10-20T11:20:49.577Z,20.40
2022-10-20T11:23:44.791Z,20.05
2022-10-20T11:26:21.569Z,20.45
2022-10-20T11:28:53.109Z,19.92
2022-10-20T11:31:27.734Z,20.25
2022-10-20T11:34:01.879Z,20.83
2022-10-20T11:36:36.461Z,19.55
2022-10-20T11:39:06.681Z,18.30
2022-10-20T11:44:15.520Z,17.90
2022-10-20T11:46:48.460Z,17.05
2022-10-20T11:49:19.208Z,17.60
2022-10-20T11:52:22.398Z,19.35
2022-10-20T11:55:08.354Z,18.15
2022-10-20T11:57:57.697Z,18.25
2022-10-20T12:00:40.345Z,18.35
2022-10-20T12:03:43.584Z,16.92
2022-10-20T12:06:32.011Z,17.35
2022-10-20T12:09:19.946Z,16.88
2022-10-20T12:11:53.011Z,18.65
2022-10-20T12:14:27.071Z,23.73
2022-10-20T12:17:16.180Z,17.80
2022-10-20T12:19:44.434Z,17.08
2022-10-20T12:22:42.709Z,16.45
2022-10-20T12:25:24.218Z,18.17
2022-10-20T12:28:25.232Z,15.75
2022-10-20T12:30:59.231Z,17.35
2022-10-20T12:33:38.357Z,17.92
2022-10-20T12:36:27.702Z,19.52
2022-10-20T12:39:14.881Z,20.13
2022-10-20T12:41:46.945Z,20.40
2022-10-20T12:44:18.028Z,19.88
2022-10-20T12:46:55.038Z,21.13
2022-10-20T12:49:28.892Z,20.50
2022-10-20T12:51:58.911Z,19.05
2022-10-20T12:54:35.014Z,18.92
2022-10-20T12:57:07.136Z,19.52
2022-10-20T12:59:40.586Z,20.42
2022-10-20T13:02:42.112Z,18.08
2022-10-20T13:05:42.917Z,18.70
2022-10-20T13:08:36.372Z,18.33
2022-10-20T13:11:46.049Z,18.05
2022-10-20T13:14:48.187Z,18.05
2022-10-20T13:17:30.314Z,17.77
2022-10-20T13:22:39.035Z,17.52
2022-10-20T13:25:15.097Z,17.75
2022-10-20T13:27:44.543Z,17.38
2022-10-20T13:30:21.554Z,16.90
2022-10-20T13:33:18.250Z,17.50
2022-10-20T13:35:54.386Z,16.77
2022-10-20T13:38:28.535Z,15.13
2022-10-20T13:41:02.557Z,15.18
2022-10-20T13:43:42.592Z,15.02
2022-10-20T13:46:27.417Z,13.18
2022-10-20T13:49:10.945Z,12.20
2022-10-20T13:51:44.113Z,11.80
2022-10-20T13:54:23.553Z,11.60
2022-10-20T13:56:52.287Z,14.00
2022-10-20T14:02:00.264Z,11.85
2022-10-20T14:04:30.488Z,15.07
2022-10-20T14:07:04.171Z,12.63
2022-10-20T14:09:32.628Z,14.20
2022-10-20T14:12:03.966Z,16.23
2022-10-20T14:14:36.790Z,13.80
2022-10-20T14:17:06.879Z,14.68
2022-10-20T14:19:35.521Z,16.33
2022-10-20T14:22:14.230Z,12.57
2022-10-20T14:24:45.380Z,15.60
2022-10-20T14:27:18.357Z,16.30
2022-10-20T14:29:48.484Z,15.40
2022-10-20T14:32:19.759Z,14.00
2022-10-20T14:34:57.135Z,15.00
2022-10-20T14:37:30.940Z,12.88
2022-10-20T14:40:02.130Z,12.38
2022-10-20T14:42:32.276Z,14.98
2022-10-20T14:45:03.113Z,14.43
2022-10-20T14:47:35.499Z,15.90
2022-10-20T14:50:03.970Z,16.17
2022-10-20T14:52:35.536Z,14.23
2022-10-20T14:55:03.598Z,14.25
2022-10-20T14:57:45.926Z,15.55
2022-10-20T15:00:38.239Z,14.10
2022-10-20T15:05:41.994Z,12.27
2022-10-20T15:08:17.566Z,11.27
2022-10-20T15:10:45.968Z,12.95
2022-10-20T15:13:27.959Z,14.10
2022-10-20T15:15:58.779Z,12.57
2022-10-20T15:18:27.579Z,14.77
2022-10-20T15:20:56.588Z,12.52
2022-10-20T15:23:26.928Z,13.60
2022-10-20T15:25:59.246Z,13.68
2022-10-20T15:28:37.669Z,14.30
2022-10-20T15:31:09.225Z,12.50
2022-10-20T15:33:36.968Z,12.70
2022-10-20T15:36:10.758Z,12.27
2022-10-20T15:38:38.457Z,12.48
2022-10-20T15:41:06.583Z,12.10
2022-10-20T15:43:34.338Z,12.48
2022-10-20T15:46:02.103Z,11.27
2022-10-20T15:48:31.186Z,11.65
2022-10-20T15:50:59.380Z,11.45
2022-10-20T15:53:27.387Z,12.60
2022-10-20T15:55:55.077Z,12.75
2022-10-20T15:58:22.868Z,12.32
2022-10-20T16:00:50.705Z,12.23
2022-10-20T16:03:19.795Z,12.38
2022-10-20T16:05:48.887Z,13.07
2022-10-20T16:08:16.624Z,12.10
2022-10-20T16:10:44.526Z,12.75
2022-10-20T16:13:13.017Z,13.23
2022-10-20T16:15:40.747Z,13.20
2022-10-20T16:18:09.872Z,14.23
2022-10-20T16:20:38.103Z,13.20
2022-10-20T16:23:07.194Z,13.10
2022-10-20T16:25:34.953Z,12.80
2022-10-20T16:28:02.949Z,13.63
2022-10-20T16:30:30.706Z,14.95
2022-10-20T16:32:58.459Z,13.77
2022-10-20T16:35:26.236Z,14.75
2022-10-20T16:37:54.005Z,15.43
2022-10-20T16:40:23.111Z,13.95
2022-10-20T16:42:50.896Z,14.40
2022-10-20T16:45:18.860Z,14.60
2022-10-20T16:47:46.662Z,14.25
2022-10-20T16:50:14.404Z,14.20
2022-10-20T16:52:42.118Z,15.40
2022-10-20T16:55:12.038Z,15.57
2022-10-20T16:57:41.498Z,14.35
2022-10-20T17:00:10.537Z,16.40
2022-10-20T17:02:38.778Z,12.93
2022-10-20T17:05:09.346Z,12.70
2022-10-20T17:07:38.070Z,14.23
2022-10-20T17:10:07.011Z,14.10
2022-10-20T17:12:34.768Z,15.32
2022-10-20T17:15:04.079Z,12.65
2022-10-20T17:17:31.803Z,14.70
2022-10-20T17:19:59.640Z,15.57
2022-10-20T17:22:27.381Z,13.48
2022-10-20T17:24:55.049Z,14.38
2022-10-20T17:27:22.778Z,14.07
2022-10-20T17:29:50.835Z,15.52
2022-10-20T17:32:20.038Z,15.60
2022-10-20T17:34:47.725Z,15.73
2022-10-20T17:37:15.500Z,17.52
2022-10-20T17:39:43.317Z,16.00
2022-10-20T17:42:11.034Z,16.27
2022-10-20T17:44:38.764Z,16.95
2022-10-20T17:47:06.519Z,16.50
2022-10-20T17:49:35.717Z,16.70
2022-10-20T17:52:03.813Z,17.90
2022-10-20T17:54:31.653Z,15.90
2022-10-20T17:56:59.378Z,19.17
2022-10-20T17:59:27.113Z,19.40
2022-10-20T18:01:55.859Z,21.33
2022-10-20T18:04:23.635Z,35.75
2022-10-20T18:06:52.843Z,23.38
2022-10-20T18:09:20.844Z,21.13
2022-10-20T18:11:51.270Z,21.15
2022-10-20T18:14:19.495Z,22.73
2022-10-20T18:16:47.883Z,21.05
2022-10-20T18:19:17.983Z,37.55
2022-10-20T18:21:45.751Z,23.40
2022-10-20T18:24:17.254Z,21.85
2022-10-20T18:26:45.794Z,22.75
2022-10-20T18:29:16.784Z,24.05
2022-10-20T18:31:46.375Z,24.90
2022-10-20T18:34:17.280Z,27.65
2022-10-20T18:36:45.888Z,27.08
2022-10-20T18:39:15.854Z,29.60
2022-10-20T18:41:45.610Z,25.98
2022-10-20T18:44:16.706Z,28.60
2022-10-20T18:46:46.174Z,26.10
2022-10-20T18:49:16.373Z,28.92
2022-10-20T18:51:46.999Z,37.35
2022-10-20T18:54:16.650Z,34.45
2022-10-20T18:56:44.443Z,31.13
2022-10-20T18:59:16.496Z,31.98
2022-10-20T19:04:13.413Z,27.98
2022-10-20T19:06:43.318Z,27.10
2022-10-20T19:09:14.403Z,26.15
2022-10-20T19:11:44.777Z,31.58
2022-10-20T19:14:13.410Z,31.88
2022-10-20T19:16:44.772Z,31.45
2022-10-20T19:19:12.729Z,35.88
2022-10-20T19:21:40.906Z,33.10
2022-10-20T19:24:10.669Z,34.50
2022-10-20T19:26:41.293Z,32.70
2022-10-20T19:29:12.640Z,35.10
2022-10-20T19:31:42.776Z,37.28
2022-10-20T19:34:13.395Z,34.25
2022-10-20T19:36:41.838Z,31.10
2022-10-20T19:39:12.310Z,34.00
2022-10-20T19:41:41.065Z,38.97
2022-10-20T19:44:13.027Z,35.22
2022-10-20T19:46:41.146Z,36.63
2022-10-20T19:49:09.306Z,37.75
2022-10-20T19:51:37.147Z,36.90
2022-10-20T19:54:05.804Z,37.55
2022-10-20T19:56:34.389Z,39.65
2022-10-20T19:59:03.041Z,35.13
2022-10-20T20:01:32.550Z,38.80
2022-10-20T20:04:00.439Z,36.58
2022-10-20T20:06:28.809Z,35.33
2022-10-20T20:08:59.084Z,35.72
2022-10-20T20:11:30.621Z,36.85
2022-10-20T20:14:02.731Z,40.63
2022-10-20T20:19:00.186Z,46.00
2022-10-20T20:21:28.845Z,40.13
2022-10-20T20:23:59.918Z,39.80
2022-10-20T20:26:29.465Z,36.75
2022-10-20T20:28:58.507Z,43.88
2022-10-20T20:31:27.358Z,45.83
2022-10-20T20:33:56.644Z,44.97
2022-10-20T20:36:29.401Z,40.72
2022-10-20T20:38:58.583Z,39.78
2022-10-20T20:41:28.366Z,41.50
2022-10-20T20:43:56.375Z,38.80
2022-10-20T20:46:26.825Z,43.97
2022-10-20T20:48:54.873Z,41.03
2022-10-20T20:51:23.012Z,45.65
2022-10-20T20:53:52.444Z,49.13
2022-10-20T20:56:23.234Z,51.50
2022-10-20T20:58:55.284Z,43.60
2022-10-20T21:01:25.215Z,37.38
2022-10-20T21:03:54.890Z,39.75
2022-10-20T21:06:28.794Z,42.65
2022-10-20T21:09:03.540Z,39.95
2022-10-20T21:11:31.559Z,40.08
2022-10-20T21:13:59.885Z,40.15
2022-10-20T21:16:29.504Z,39.60
2022-10-20T21:18:59.246Z,41.08
2022-10-20T21:21:28.724Z,38.13
2022-10-20T21:23:57.401Z,40.35
2022-10-20T21:26:28.491Z,41.10
2022-10-20T21:28:57.024Z,42.03
2022-10-20T21:31:26.462Z,41.83
2022-10-20T21:33:55.936Z,40.78
2022-10-20T21:36:24.860Z,41.42
2022-10-20T21:38:52.954Z,41.33
2022-10-20T21:41:22.968Z,44.13
2022-10-20T21:43:54.349Z,43.83
2022-10-20T21:46:25.052Z,31.52
2022-10-20T21:48:54.814Z,42.15
2022-10-20T21:51:24.597Z,41.70
2022-10-20T21:53:55.682Z,38.10
2022-10-20T21:56:23.426Z,41.20
2022-10-20T21:58:53.975Z,38.90
2022-10-20T22:01:23.905Z,40.30
2022-10-20T22:03:53.527Z,37.10
2022-10-20T22:06:23.350Z,34.22
2022-10-20T22:08:53.680Z,35.42
2022-10-20T22:11:23.730Z,35.20
2022-10-20T22:13:53.087Z,37.45
2022-10-20T22:16:23.508Z,34.05
2022-10-20T22:18:55.604Z,37.00
2022-10-20T22:23:53.763Z,37.92
2022-10-20T22:26:22.174Z,36.25
2022-10-20T22:28:52.716Z,37.30
2022-10-20T22:31:20.661Z,40.30
2022-10-20T22:33:48.577Z,41.28
2022-10-20T22:36:16.473Z,36.22
2022-10-20T22:38:44.270Z,41.60
2022-10-20T22:41:13.005Z,42.90
2022-10-20T22:43:41.127Z,45.83
2022-10-20T22:46:10.482Z,45.05
2022-10-20T22:48:38.757Z,44.25
2022-10-20T22:51:06.935Z,45.40
2022-10-20T22:53:34.949Z,45.83
2022-10-20T22:56:07.509Z,45.67
2022-10-20T22:58:35.933Z,45.70
2022-10-20T23:01:08.054Z,43.72
2022-10-20T23:03:37.535Z,45.00
2022-10-20T23:06:09.820Z,44.17
2022-10-20T23:08:41.970Z,47.58
2022-10-20T23:11:10.265Z,40.38
2022-10-20T23:13:38.174Z,40.42
2022-10-20T23:16:06.488Z,41.50
2022-10-20T23:18:34.976Z,42.35
2022-10-20T23:21:04.899Z,43.05
2022-10-20T23:23:33.541Z,41.58
2022-10-20T23:26:03.815Z,41.47
2022-10-20T23:28:32.555Z,42.70
2022-10-20T23:31:09.316Z,41.58
2022-10-20T23:33:37.394Z,42.92
2022-10-20T23:36:07.333Z,45.08
2022-10-20T23:38:35.464Z,43.17
2022-10-20T23:41:03.604Z,44.20
2022-10-20T23:43:31.377Z,45.95
2022-10-20T23:45:59.248Z,44.83
2022-10-20T23:48:27.347Z,41.40
2022-10-20T23:50:55.502Z,44.13
2022-10-20T23:53:25.295Z,42.95
2022-10-20T23:55:53.195Z,47.10
2022-10-20T23:58:22.521Z,43.50
